Time;durP1;ratioP1;P1;durP2;ratioP2;P2;SDS_P1;SDS_P2;PMS_P1;PMS_P2;Temp;Humidity;BMP_temperature;BMP_pressure;BME280_temperature;BME280_humidity;BME280_pressure;Samples;Min_cycle;Max_cycle;Signal;HPM_P1;HPM_P2
2022/11/12 00:02:12;;;;;;;14.60;6.88;;;;;;;;;;5030672;28;20036;-73
2022/11/12 00:04:37;;;;;;;13.98;7.13;;;;;;;;;;5011695;28;20276;-73
2022/11/12 00:07:02;;;;;;;8.90;5.55;;;;;;;;;;5014895;28;20038;-85
2022/11/12 00:09:28;;;;;;;11.93;7.50;;;;;;;;;;5014654;28;20412;-87
2022/11/12 00:11:54;;;;;;;13.53;6.57;;;;;;;;;;5033351;28;20618;-85
2022/11/12 00:14:19;;;;;;;16.33;6.72;;;;;;;;;;5015410;28;20332;-84
2022/11/12 00:16:44;;;;;;;11.43;6.23;;;;;;;;;;5031612;28;20033;-85
2022/11/12 00:19:09;;;;;;;10.32;6.38;;;;;;;;;;5015224;28;20627;-86
2022/11/12 00:21:35;;;;;;;11.47;6.23;;;;;;;;;;5014929;28;20036;-74
2022/11/12 00:24:00;;;;;;;15.38;7.40;;;;;;;;;;5015414;28;20275;-76
2022/11/12 00:26:25;;;;;;;10.02;5.93;;;;;;;;;;5012911;28;20026;-74
2022/11/12 00:28:50;;;;;;;13.33;6.30;;;;;;;;;;5033150;28;20017;-76
2022/11/12 00:31:16;;;;;;;9.27;5.43;;;;;;;;;;5011639;28;20319;-74
2022/11/12 00:33:41;;;;;;;8.67;5.97;;;;;;;;;;5015529;28;20287;-74
2022/11/12 00:36:07;;;;;;;10.60;6.70;;;;;;;;;;5013822;28;20296;-74
2022/11/12 00:38:32;;;;;;;9.68;5.95;;;;;;;;;;5011495;28;20479;-73
2022/11/12 00:40:58;;;;;;;10.02;6.15;;;;;;;;;;5031892;28;20546;-74
2022/11/12 00:43:24;;;;;;;15.85;5.80;;;;;;;;;;5016112;28;20036;-86
2022/11/12 00:45:49;;;;;;;9.93;6.32;;;;;;;;;;5012071;28;20025;-87
2022/11/12 00:48:14;;;;;;;10.50;5.60;;;;;;;;;;5033591;28;20033;-88
2022/11/12 00:50:39;;;;;;;10.17;5.43;;;;;;;;;;5032705;28;20280;-85
2022/11/12 00:53:05;;;;;;;9.25;5.60;;;;;;;;;;5014118;28;20326;-87
2022/11/12 00:55:30;;;;;;;7.90;5.10;;;;;;;;;;5027061;28;20033;-87
2022/11/12 00:57:57;;;;;;;9.40;5.67;;;;;;;;;;5028575;28;20379;-73
2022/11/12 01:00:22;;;;;;;10.82;6.05;;;;;;;;;;5011511;28;20406;-88
2022/11/12 01:02:47;;;;;;;11.15;6.57;;;;;;;;;;5028104;28;20133;-74
2022/11/12 01:05:12;;;;;;;9.30;5.47;;;;;;;;;;5011804;28;20029;-74
2022/11/12 01:07:38;;;;;;;12.48;5.72;;;;;;;;;;5011516;28;20037;-73
2022/11/12 01:10:03;;;;;;;9.50;6.47;;;;;;;;;;5032200;28;20021;-74
2022/11/12 01:12:29;;;;;;;9.27;6.13;;;;;;;;;;5028184;28;20545;-75
2022/11/12 01:14:55;;;;;;;9.77;5.88;;;;;;;;;;5010491;28;20380;-76
2022/11/12 01:17:21;;;;;;;10.95;6.18;;;;;;;;;;5007760;28;20122;-73
2022/11/12 01:19:46;;;;;;;10.90;6.28;;;;;;;;;;5013442;28;20116;-75
2022/11/12 01:22:11;;;;;;;10.23;6.70;;;;;;;;;;5011171;28;20029;-74
2022/11/12 01:24:36;;;;;;;10.30;5.38;;;;;;;;;;5029871;28;20029;-74
2022/11/12 01:27:02;;;;;;;12.57;5.93;;;;;;;;;;5030312;28;20045;-75
2022/11/12 01:29:27;;;;;;;9.07;5.47;;;;;;;;;;5010906;28;20025;-74
2022/11/12 01:31:52;;;;;;;12.50;7.07;;;;;;;;;;5017445;28;20025;-74
2022/11/12 01:34:17;;;;;;;11.95;6.05;;;;;;;;;;5017443;28;20477;-75
2022/11/12 01:36:43;;;;;;;10.77;6.00;;;;;;;;;;5011903;28;20376;-82
2022/11/12 01:39:08;;;;;;;9.37;5.87;;;;;;;;;;5015021;28;20124;-74
2022/11/12 01:41:35;;;;;;;16.75;5.50;;;;;;;;;;5019912;28;20316;-74
2022/11/12 01:44:11;;;;;;;10.55;6.10;;;;;;;;;;5014702;28;20099;-75
2022/11/12 01:46:40;;;;;;;8.30;5.53;;;;;;;;;;5009506;28;20091;-75
2022/11/12 01:49:08;;;;;;;11.18;5.00;;;;;;;;;;5010717;28;20105;-72
2022/11/12 01:51:36;;;;;;;10.32;5.45;;;;;;;;;;5012903;28;20025;-73
2022/11/12 01:54:05;;;;;;;11.40;5.13;;;;;;;;;;5028775;28;20461;-77
2022/11/12 01:56:31;;;;;;;9.43;5.95;;;;;;;;;;4998279;28;20033;-83
2022/11/12 01:58:59;;;;;;;8.32;4.82;;;;;;;;;;5030715;28;20029;-85
2022/11/12 02:01:25;;;;;;;12.98;5.15;;;;;;;;;;5025790;28;20113;-84
2022/11/12 02:03:50;;;;;;;8.60;5.47;;;;;;;;;;5009671;28;20120;-86
2022/11/12 02:06:16;;;;;;;8.40;5.00;;;;;;;;;;5017268;28;20365;-85
2022/11/12 02:08:42;;;;;;;8.77;4.90;;;;;;;;;;5016610;28;20053;-85
2022/11/12 02:11:10;;;;;;;8.82;5.03;;;;;;;;;;5015129;28;20017;-75
2022/11/12 02:16:19;;;;;;;8.57;5.18;;;;;;;;;;5029307;28;20033;-85
2022/11/12 02:18:44;;;;;;;8.30;5.18;;;;;;;;;;5018920;28;20033;-85
2022/11/12 02:21:09;;;;;;;7.93;4.72;;;;;;;;;;5026940;28;20544;-86
2022/11/12 02:23:36;;;;;;;9.70;6.00;;;;;;;;;;5018297;28;20374;-85
2022/11/12 02:26:01;;;;;;;7.72;4.32;;;;;;;;;;5016055;28;20025;-84
2022/11/12 02:28:27;;;;;;;9.43;5.22;;;;;;;;;;5015559;28;20368;-88
2022/11/12 02:30:53;;;;;;;10.95;5.43;;;;;;;;;;5010685;28;20018;-73
2022/11/12 02:33:18;;;;;;;7.90;5.00;;;;;;;;;;5017635;28;20412;-72
2022/11/12 02:35:43;;;;;;;9.10;4.67;;;;;;;;;;5011395;28;20491;-72
2022/11/12 02:38:08;;;;;;;10.82;5.28;;;;;;;;;;5011972;28;20638;-73
2022/11/12 02:40:34;;;;;;;8.93;5.23;;;;;;;;;;5018406;28;20533;-72
2022/11/12 02:42:59;;;;;;;9.73;4.90;;;;;;;;;;5011140;28;20681;-76
2022/11/12 02:45:25;;;;;;;8.00;5.38;;;;;;;;;;5009169;28;20479;-72
2022/11/12 02:47:50;;;;;;;11.05;5.22;;;;;;;;;;5019147;28;20468;-73
2022/11/12 02:50:16;;;;;;;8.35;4.90;;;;;;;;;;5020463;28;20125;-71
2022/11/12 02:52:41;;;;;;;8.60;4.68;;;;;;;;;;5027633;28;20353;-73
2022/11/12 02:55:07;;;;;;;8.27;4.87;;;;;;;;;;5027894;28;20026;-73
2022/11/12 02:57:32;;;;;;;9.02;5.18;;;;;;;;;;5011771;28;20302;-72
2022/11/12 02:59:57;;;;;;;9.23;4.82;;;;;;;;;;5015807;28;20026;-74
2022/11/12 03:02:23;;;;;;;7.55;4.82;;;;;;;;;;5011535;28;20314;-73
2022/11/12 03:04:48;;;;;;;8.83;5.03;;;;;;;;;;5029348;28;20021;-74
2022/11/12 03:07:13;;;;;;;7.40;5.03;;;;;;;;;;5015209;28;20292;-72
2022/11/12 03:12:08;;;;;;;7.35;4.78;;;;;;;;;;4982179;28;20058;-77
2022/11/12 03:14:33;;;;;;;8.70;5.45;;;;;;;;;;4986937;28;20045;-80
2022/11/12 03:16:58;;;;;;;9.27;5.00;;;;;;;;;;4984137;28;20461;-79
2022/11/12 03:19:24;;;;;;;9.47;4.10;;;;;;;;;;4987474;28;20023;-78
2022/11/12 03:21:49;;;;;;;6.23;4.40;;;;;;;;;;4989618;28;20296;-78
2022/11/12 03:24:14;;;;;;;8.33;4.60;;;;;;;;;;4993313;28;20343;-78
2022/11/12 03:26:39;;;;;;;9.47;5.20;;;;;;;;;;4982704;28;20290;-71
2022/11/12 03:29:04;;;;;;;8.77;4.70;;;;;;;;;;4966705;28;20286;-77
2022/11/12 03:31:29;;;;;;;9.13;6.07;;;;;;;;;;4972373;28;20297;-78
2022/11/12 03:33:55;;;;;;;8.50;4.83;;;;;;;;;;4975833;28;20029;-77
2022/11/12 03:36:20;;;;;;;6.40;4.50;;;;;;;;;;4973006;28;20286;-78
2022/11/12 03:38:45;;;;;;;8.13;4.43;;;;;;;;;;4972442;28;20290;-78
2022/11/12 03:41:10;;;;;;;7.35;4.40;;;;;;;;;;4970807;28;20313;-78
2022/11/12 03:43:36;;;;;;;6.38;4.00;;;;;;;;;;4970784;28;20105;-70
2022/11/12 03:46:01;;;;;;;8.17;4.40;;;;;;;;;;4969816;28;20118;-75
2022/11/12 03:48:26;;;;;;;8.35;5.18;;;;;;;;;;4971345;28;20634;-75
2022/11/12 03:50:51;;;;;;;7.38;4.05;;;;;;;;;;4972799;28;20047;-74
2022/11/12 03:53:17;;;;;;;7.65;4.20;;;;;;;;;;4971932;28;20050;-73
2022/11/12 03:55:42;;;;;;;6.63;3.80;;;;;;;;;;4969958;28;20549;-73
2022/11/12 03:58:07;;;;;;;6.37;4.13;;;;;;;;;;4969197;28;20097;-73
2022/11/12 04:00:32;;;;;;;8.67;4.03;;;;;;;;;;4965311;28;20282;-73
2022/11/12 04:02:58;;;;;;;7.10;4.35;;;;;;;;;;4970814;28;20365;-74
2022/11/12 04:08:36;;;;;;;6.45;4.10;;;;;;;;;;4969264;28;20023;-69
2022/11/12 04:11:07;;;;;;;6.88;4.53;;;;;;;;;;4972176;28;20026;-71
2022/11/12 04:13:32;;;;;;;7.60;3.78;;;;;;;;;;4973116;28;20333;-70
2022/11/12 04:21:51;;;;;;;6.30;4.90;;;;;;;;;;4969776;28;20038;-70
2022/11/12 04:27:05;;;;;;;5.45;3.63;;;;;;;;;;4971275;28;20027;-71
2022/11/12 04:32:15;;;;;;;5.50;3.65;;;;;;;;;;4968636;28;20411;-73
2022/11/12 04:34:40;;;;;;;6.25;3.70;;;;;;;;;;4971930;28;20065;-74
2022/11/12 04:37:06;;;;;;;5.72;3.33;;;;;;;;;;4969977;28;20454;-71
2022/11/12 04:39:31;;;;;;;5.45;3.25;;;;;;;;;;4970029;28;20118;-78
2022/11/12 04:47:42;;;;;;;6.55;3.55;;;;;;;;;;4957061;28;20031;-73
2022/11/12 04:50:15;;;;;;;5.82;3.90;;;;;;;;;;4967939;28;20030;-73
2022/11/12 04:52:40;;;;;;;6.03;3.75;;;;;;;;;;4971156;28;20109;-72
2022/11/12 04:55:06;;;;;;;4.68;3.40;;;;;;;;;;4967872;28;20258;-73
2022/11/12 04:57:31;;;;;;;5.88;3.75;;;;;;;;;;4971083;28;20122;-71
2022/11/12 04:59:56;;;;;;;6.40;3.20;;;;;;;;;;4973541;28;20496;-78
2022/11/12 05:02:21;;;;;;;5.73;3.40;;;;;;;;;;4969901;28;20161;-77
2022/11/12 05:04:47;;;;;;;8.10;3.67;;;;;;;;;;4971248;28;20801;-79
2022/11/12 05:07:12;;;;;;;5.20;3.15;;;;;;;;;;4971762;28;20549;-78
2022/11/12 05:09:38;;;;;;;7.55;3.17;;;;;;;;;;4966203;28;20038;-77
2022/11/12 05:12:04;;;;;;;6.63;3.42;;;;;;;;;;4964562;28;20529;-76
2022/11/12 05:14:29;;;;;;;4.57;3.00;;;;;;;;;;4966831;28;20026;-76
2022/11/12 05:16:54;;;;;;;6.30;3.00;;;;;;;;;;4967928;28;20073;-76
2022/11/12 05:19:19;;;;;;;4.23;3.23;;;;;;;;;;4973971;28;20364;-69
2022/11/12 05:24:28;;;;;;;5.78;3.40;;;;;;;;;;4968993;28;20057;-70
2022/11/12 05:26:54;;;;;;;4.07;3.20;;;;;;;;;;4966880;28;20035;-69
2022/11/12 05:29:19;;;;;;;4.33;2.90;;;;;;;;;;4970244;28;20442;-69
2022/11/12 05:31:44;;;;;;;3.97;2.80;;;;;;;;;;4973101;28;20657;-69
2022/11/12 05:34:10;;;;;;;3.40;2.65;;;;;;;;;;4972784;28;20026;-76
2022/11/12 05:36:35;;;;;;;5.80;3.03;;;;;;;;;;4972119;28;20489;-75
2022/11/12 05:39:01;;;;;;;6.00;3.35;;;;;;;;;;4972286;28;20027;-75
2022/11/12 05:41:26;;;;;;;4.68;3.35;;;;;;;;;;4972583;28;20074;-74
2022/11/12 05:43:51;;;;;;;4.17;2.93;;;;;;;;;;4971545;28;20093;-74
2022/11/12 05:46:16;;;;;;;4.97;3.00;;;;;;;;;;4972434;28;20718;-74
2022/11/12 05:48:42;;;;;;;5.80;3.85;;;;;;;;;;4971875;28;20788;-74
2022/11/12 05:51:07;;;;;;;4.13;3.10;;;;;;;;;;4973543;28;20045;-74
2022/11/12 05:53:32;;;;;;;4.17;2.63;;;;;;;;;;4971498;28;20101;-70
2022/11/12 05:56:01;;;;;;;4.97;3.20;;;;;;;;;;4964797;28;20309;-73
2022/11/12 05:58:26;;;;;;;5.60;3.58;;;;;;;;;;4971372;28;20329;-75
2022/11/12 06:00:51;;;;;;;4.65;3.35;;;;;;;;;;4971329;28;20057;-74
2022/11/12 06:03:17;;;;;;;4.83;3.03;;;;;;;;;;4970266;28;20374;-73
2022/11/12 06:05:42;;;;;;;6.33;3.70;;;;;;;;;;4973260;28;20282;-74
2022/11/12 06:08:07;;;;;;;5.67;3.00;;;;;;;;;;4971185;28;20290;-72
2022/11/12 06:10:32;;;;;;;4.77;3.03;;;;;;;;;;4971062;28;20290;-70
2022/11/12 06:12:57;;;;;;;6.13;3.28;;;;;;;;;;4972047;28;20287;-70
2022/11/12 06:15:25;;;;;;;3.23;2.77;;;;;;;;;;4971621;28;20067;-68
2022/11/12 06:17:51;;;;;;;4.63;3.03;;;;;;;;;;4970653;28;20297;-70
2022/11/12 06:20:16;;;;;;;4.95;3.30;;;;;;;;;;4969464;28;20046;-69
2022/11/12 06:22:41;;;;;;;5.90;3.30;;;;;;;;;;4967828;28;20159;-69
2022/11/12 06:25:07;;;;;;;4.73;3.00;;;;;;;;;;4970390;28;20034;-70
2022/11/12 06:27:32;;;;;;;5.22;3.67;;;;;;;;;;4969209;28;20294;-70
2022/11/12 06:29:57;;;;;;;5.53;3.40;;;;;;;;;;4964219;28;20068;-71
2022/11/12 06:32:22;;;;;;;4.57;3.17;;;;;;;;;;4968077;28;20035;-80
2022/11/12 06:34:49;;;;;;;4.85;3.10;;;;;;;;;;4971279;28;20305;-77
2022/11/12 06:37:14;;;;;;;4.85;3.25;;;;;;;;;;4968843;28;20137;-76
2022/11/12 06:39:39;;;;;;;6.28;3.20;;;;;;;;;;4970141;28;20506;-78
2022/11/12 06:42:05;;;;;;;4.90;3.13;;;;;;;;;;4971868;28;20033;-75
2022/11/12 06:44:30;;;;;;;5.43;3.25;;;;;;;;;;4971013;28;20022;-77
2022/11/12 06:46:55;;;;;;;5.50;3.53;;;;;;;;;;4964210;28;20030;-79
2022/11/12 06:49:20;;;;;;;4.63;3.40;;;;;;;;;;4970991;28;20357;-73
2022/11/12 06:51:48;;;;;;;6.05;3.47;;;;;;;;;;4971156;28;20486;-73
2022/11/12 06:54:14;;;;;;;6.38;3.60;;;;;;;;;;4969687;28;20532;-75
2022/11/12 06:56:39;;;;;;;7.05;3.25;;;;;;;;;;4969113;28;20026;-73
2022/11/12 06:59:04;;;;;;;8.83;3.93;;;;;;;;;;4966017;28;20339;-73
2022/11/12 07:01:29;;;;;;;4.57;2.90;;;;;;;;;;4970615;28;20282;-73
2022/11/12 07:03:54;;;;;;;7.13;3.60;;;;;;;;;;4971570;28;20288;-74
2022/11/12 07:06:20;;;;;;;6.03;3.67;;;;;;;;;;4970644;28;20281;-74
2022/11/12 07:08:45;;;;;;;6.10;4.03;;;;;;;;;;4960786;28;20039;-77
2022/11/12 07:11:11;;;;;;;7.18;3.60;;;;;;;;;;4963198;28;20282;-77
2022/11/12 07:13:36;;;;;;;6.07;3.35;;;;;;;;;;4968782;28;20092;-77
2022/11/12 07:16:03;;;;;;;5.82;3.65;;;;;;;;;;4963958;28;20093;-78
2022/11/12 07:18:29;;;;;;;5.18;3.53;;;;;;;;;;4966867;28;20030;-77
2022/11/12 07:21:13;;;;;;;7.70;3.78;;;;;;;;;;4961637;28;20030;-78
2022/11/12 07:23:38;;;;;;;8.60;3.90;;;;;;;;;;4966565;28;20035;-78
2022/11/12 07:26:05;;;;;;;7.17;3.70;;;;;;;;;;4967176;28;20046;-72
2022/11/12 07:28:30;;;;;;;9.95;3.60;;;;;;;;;;4968524;28;20641;-72
2022/11/12 07:31:00;;;;;;;6.03;3.53;;;;;;;;;;4965877;28;20023;-73
2022/11/12 07:33:25;;;;;;;6.35;3.83;;;;;;;;;;4966655;28;20072;-72
2022/11/12 07:35:56;;;;;;;8.30;4.70;;;;;;;;;;4967429;28;20066;-73
2022/11/12 07:38:21;;;;;;;6.35;4.30;;;;;;;;;;4980078;28;20058;-73
2022/11/12 07:40:46;;;;;;;8.20;4.30;;;;;;;;;;4970722;28;20035;-72
2022/11/12 07:43:11;;;;;;;6.30;3.73;;;;;;;;;;4965947;28;21980;-74
2022/11/12 07:45:37;;;;;;;7.27;4.07;;;;;;;;;;4967402;28;20634;-71
2022/11/12 07:48:02;;;;;;;7.80;3.53;;;;;;;;;;4966479;28;20740;-72
2022/11/12 07:50:27;;;;;;;6.97;4.38;;;;;;;;;;4967927;28;20282;-71
2022/11/12 07:52:52;;;;;;;8.63;4.40;;;;;;;;;;4966912;28;20038;-73
2022/11/12 07:55:17;;;;;;;5.73;3.70;;;;;;;;;;4967805;28;20293;-71
2022/11/12 07:57:43;;;;;;;5.83;3.47;;;;;;;;;;4964442;28;20293;-71
2022/11/12 08:00:09;;;;;;;5.93;3.43;;;;;;;;;;4971363;28;20345;-73
2022/11/12 08:02:34;;;;;;;5.97;3.22;;;;;;;;;;4965415;28;20357;-71
2022/11/12 08:05:00;;;;;;;5.87;3.67;;;;;;;;;;5007336;22;20129;-82
2022/11/12 08:07:25;;;;;;;6.47;3.10;;;;;;;;;;5010710;28;20312;-84
2022/11/12 08:09:50;;;;;;;5.53;3.97;;;;;;;;;;5013173;28;20030;-85
2022/11/12 08:12:16;;;;;;;4.78;3.35;;;;;;;;;;5015052;28;20287;-83
2022/11/12 08:14:41;;;;;;;4.93;3.40;;;;;;;;;;5015373;28;20391;-73
2022/11/12 08:17:06;;;;;;;5.30;3.50;;;;;;;;;;5016708;28;20029;-83
2022/11/12 08:19:31;;;;;;;7.22;3.90;;;;;;;;;;5010986;28;20040;-75
2022/11/12 08:21:56;;;;;;;6.37;3.47;;;;;;;;;;5010835;28;20101;-74
2022/11/12 08:24:22;;;;;;;4.90;3.47;;;;;;;;;;5007964;28;20755;-86
2022/11/12 08:26:47;;;;;;;6.43;3.40;;;;;;;;;;5015127;28;20030;-75
2022/11/12 08:29:12;;;;;;;6.40;4.53;;;;;;;;;;5005663;28;20285;-73
2022/11/12 08:31:37;;;;;;;7.47;4.13;;;;;;;;;;5004606;28;20289;-67
2022/11/12 08:34:10;;;;;;;7.55;4.20;;;;;;;;;;5002729;28;20666;-69
2022/11/12 08:36:36;;;;;;;6.45;4.18;;;;;;;;;;5004495;28;20038;-69
2022/11/12 08:39:01;;;;;;;10.45;4.03;;;;;;;;;;5004273;28;20029;-70
2022/11/12 08:41:26;;;;;;;7.33;3.90;;;;;;;;;;5003605;28;20026;-70
2022/11/12 08:43:51;;;;;;;5.85;3.67;;;;;;;;;;5006657;28;20316;-76
2022/11/12 08:46:17;;;;;;;5.47;3.43;;;;;;;;;;5010508;28;20028;-69
2022/11/12 08:48:42;;;;;;;6.37;4.17;;;;;;;;;;5007627;28;20299;-71
2022/11/12 08:51:07;;;;;;;6.03;3.70;;;;;;;;;;5007265;28;20356;-75
2022/11/12 08:53:32;;;;;;;7.13;4.03;;;;;;;;;;5008842;28;20408;-83
2022/11/12 08:55:58;;;;;;;7.40;4.60;;;;;;;;;;5021940;28;20512;-85
2022/11/12 08:58:23;;;;;;;6.88;4.13;;;;;;;;;;5010211;28;20512;-66
2022/11/12 09:00:49;;;;;;;7.00;4.28;;;;;;;;;;5012459;28;20033;-80
2022/11/12 09:03:19;;;;;;;7.57;4.18;;;;;;;;;;5010041;28;20038;-78
2022/11/12 09:05:44;;;;;;;6.57;3.80;;;;;;;;;;5013086;28;20022;-76
2022/11/12 09:08:11;;;;;;;7.05;3.72;;;;;;;;;;5009774;28;20531;-75
2022/11/12 09:10:36;;;;;;;5.88;4.07;;;;;;;;;;5003889;28;20027;-75
2022/11/12 09:13:02;;;;;;;5.90;3.65;;;;;;;;;;5006303;28;20026;-78
2022/11/12 09:15:28;;;;;;;6.45;4.30;;;;;;;;;;5012193;28;20108;-70
2022/11/12 09:17:57;;;;;;;6.30;3.92;;;;;;;;;;5009472;28;20033;-75
2022/11/12 09:20:23;;;;;;;7.88;4.95;;;;;;;;;;5005291;28;20481;-74
2022/11/12 09:22:48;;;;;;;9.52;4.55;;;;;;;;;;5007592;28;20033;-82
2022/11/12 09:25:13;;;;;;;6.35;3.65;;;;;;;;;;5007754;28;20516;-77
2022/11/12 09:27:39;;;;;;;7.35;4.35;;;;;;;;;;5009404;28;20033;-75
2022/11/12 09:30:05;;;;;;;8.40;4.65;;;;;;;;;;5011723;28;20032;-74
2022/11/12 09:32:30;;;;;;;7.85;4.72;;;;;;;;;;5003519;28;20038;-77
2022/11/12 09:34:55;;;;;;;7.13;4.25;;;;;;;;;;5007702;28;20029;-69
2022/11/12 09:37:21;;;;;;;6.43;4.20;;;;;;;;;;5008792;28;20057;-83
2022/11/12 09:39:46;;;;;;;6.30;3.90;;;;;;;;;;5006971;28;20687;-80
2022/11/12 09:42:13;;;;;;;5.60;3.97;;;;;;;;;;5007477;28;20763;-83
2022/11/12 09:44:39;;;;;;;6.70;4.10;;;;;;;;;;5009219;28;20029;-84
2022/11/12 09:47:25;;;;;;;7.38;4.43;;;;;;;;;;5008233;28;20038;-78
2022/11/12 09:49:57;;;;;;;8.20;4.65;;;;;;;;;;5008375;28;20495;-79
2022/11/12 09:52:23;;;;;;;7.85;4.18;;;;;;;;;;5006781;28;20033;-78
2022/11/12 09:54:50;;;;;;;8.68;4.03;;;;;;;;;;5007754;28;20045;-72
2022/11/12 09:57:16;;;;;;;7.38;4.22;;;;;;;;;;5002149;28;20033;-72
2022/11/12 09:59:41;;;;;;;8.45;4.45;;;;;;;;;;5008195;28;20405;-69
2022/11/12 10:02:33;;;;;;;6.00;3.70;;;;;;;;;;5006628;28;20029;-67
2022/11/12 10:05:22;;;;;;;5.38;3.80;;;;;;;;;;5008546;28;20042;-69
2022/11/12 10:07:47;;;;;;;10.15;4.78;;;;;;;;;;5005577;28;20049;-67
2022/11/12 10:10:36;;;;;;;6.27;3.70;;;;;;;;;;5009623;28;20034;-66
2022/11/12 10:13:27;;;;;;;7.03;4.72;;;;;;;;;;5002767;28;20292;-73
2022/11/12 10:19:07;;;;;;;8.40;4.78;;;;;;;;;;4998793;28;20065;-72
2022/11/12 10:21:43;;;;;;;7.75;4.03;;;;;;;;;;5007836;28;20038;-72
2022/11/12 10:24:09;;;;;;;5.80;3.78;;;;;;;;;;5004636;28;20033;-71
2022/11/12 10:26:35;;;;;;;6.75;4.05;;;;;;;;;;5010578;28;20586;-70
2022/11/12 10:29:10;;;;;;;9.20;3.92;;;;;;;;;;5008241;28;20120;-82
2022/11/12 10:31:35;;;;;;;8.13;3.78;;;;;;;;;;5016829;28;20029;-67
2022/11/12 10:34:12;;;;;;;7.67;4.20;;;;;;;;;;5009635;28;20037;-69
2022/11/12 10:36:39;;;;;;;6.32;4.00;;;;;;;;;;5008255;28;20284;-67
2022/11/12 10:39:04;;;;;;;6.75;3.75;;;;;;;;;;5009173;28;20592;-69
2022/11/12 10:41:33;;;;;;;8.07;4.13;;;;;;;;;;5008915;28;20465;-66
2022/11/12 10:44:02;;;;;;;8.43;4.18;;;;;;;;;;5006099;28;20033;-69
2022/11/12 10:46:29;;;;;;;5.90;3.70;;;;;;;;;;5006518;28;20543;-71
2022/11/12 10:49:13;;;;;;;10.23;4.47;;;;;;;;;;5003818;28;20061;-70
2022/11/12 10:51:39;;;;;;;7.85;3.72;;;;;;;;;;5008024;28;20495;-69
2022/11/12 10:54:23;;;;;;;6.35;3.75;;;;;;;;;;5011664;28;20136;-67
2022/11/12 10:56:48;;;;;;;5.63;3.22;;;;;;;;;;5010174;28;20029;-69
2022/11/12 10:59:14;;;;;;;5.30;3.33;;;;;;;;;;5006535;28;20376;-70
2022/11/12 11:01:39;;;;;;;5.85;3.55;;;;;;;;;;5002357;28;20029;-66
2022/11/12 11:04:13;;;;;;;7.05;3.38;;;;;;;;;;5004536;28;20072;-66
2022/11/12 11:06:39;;;;;;;6.43;3.40;;;;;;;;;;5003036;28;20125;-75
2022/11/12 11:09:24;;;;;;;3.78;3.00;;;;;;;;;;5006143;28;20108;-66
2022/11/12 11:11:50;;;;;;;5.63;2.92;;;;;;;;;;5002547;28;20034;-66
2022/11/12 11:14:21;;;;;;;6.47;3.40;;;;;;;;;;5005814;28;20045;-66
2022/11/12 11:16:52;;;;;;;4.95;3.10;;;;;;;;;;5003089;28;20109;-71
2022/11/12 11:19:18;;;;;;;5.18;3.25;;;;;;;;;;5004449;28;20050;-66
2022/11/12 11:21:46;;;;;;;5.22;3.80;;;;;;;;;;5002855;28;20456;-75
2022/11/12 11:24:17;;;;;;;10.40;4.30;;;;;;;;;;5006605;28;20040;-71
2022/11/12 11:26:54;;;;;;;4.25;3.25;;;;;;;;;;5002919;28;20034;-68
2022/11/12 11:29:38;;;;;;;8.05;3.70;;;;;;;;;;5002030;28;20022;-70
2022/11/12 11:32:15;;;;;;;7.40;3.92;;;;;;;;;;5004492;28;20377;-71
2022/11/12 11:34:49;;;;;;;9.32;5.43;;;;;;;;;;5007000;28;20022;-71
2022/11/12 11:37:25;;;;;;;9.10;5.25;;;;;;;;;;5006234;28;20105;-71
2022/11/12 11:39:56;;;;;;;10.00;5.47;;;;;;;;;;5006306;28;20032;-71
2022/11/12 11:42:40;;;;;;;9.85;6.05;;;;;;;;;;5005035;28;20033;-75
2022/11/12 11:45:18;;;;;;;8.40;5.63;;;;;;;;;;5004864;28;20100;-68
2022/11/12 11:47:56;;;;;;;9.75;5.15;;;;;;;;;;5000783;28;20052;-65
2022/11/12 11:50:24;;;;;;;15.30;6.60;;;;;;;;;;5007777;28;20037;-67
2022/11/12 11:52:54;;;;;;;8.35;5.50;;;;;;;;;;5008876;28;20536;-67
2022/11/12 11:55:31;;;;;;;11.77;5.82;;;;;;;;;;5007753;28;20018;-66
2022/11/12 11:58:16;;;;;;;7.75;5.57;;;;;;;;;;5009426;28;20041;-66
2022/11/12 12:00:46;;;;;;;8.85;5.63;;;;;;;;;;5008083;28;20037;-72
2022/11/12 12:03:29;;;;;;;9.32;5.78;;;;;;;;;;5007275;28;20026;-68
2022/11/12 12:06:17;;;;;;;9.10;5.97;;;;;;;;;;5010261;28;20038;-65
2022/11/12 12:08:48;;;;;;;7.90;5.05;;;;;;;;;;5000675;28;20041;-66
2022/11/12 12:11:16;;;;;;;7.72;5.00;;;;;;;;;;5004428;28;20036;-67
2022/11/12 12:13:53;;;;;;;8.50;5.38;;;;;;;;;;5008630;28;20033;-68
2022/11/12 12:16:27;;;;;;;9.63;5.03;;;;;;;;;;5006703;28;20034;-67
2022/11/12 12:19:01;;;;;;;8.63;5.47;;;;;;;;;;5007731;28;20026;-80
2022/11/12 12:21:30;;;;;;;10.82;4.90;;;;;;;;;;5007299;28;20022;-73
2022/11/12 12:24:08;;;;;;;12.30;5.97;;;;;;;;;;5009221;28;20514;-70
2022/11/12 12:26:43;;;;;;;7.55;4.93;;;;;;;;;;5006316;28;20048;-67
2022/11/12 12:29:11;;;;;;;7.97;4.75;;;;;;;;;;5007590;28;20129;-72
2022/11/12 12:31:39;;;;;;;8.00;5.13;;;;;;;;;;5008527;28;20034;-67
2022/11/12 12:34:25;;;;;;;9.48;5.70;;;;;;;;;;5004664;28;20026;-67
2022/11/12 12:36:53;;;;;;;9.07;5.97;;;;;;;;;;5008179;28;20092;-72
2022/11/12 12:39:22;;;;;;;10.48;4.95;;;;;;;;;;5008418;28;20094;-65
2022/11/12 12:41:54;;;;;;;9.80;6.10;;;;;;;;;;5005827;28;20119;-71
2022/11/12 12:44:19;;;;;;;8.10;5.68;;;;;;;;;;5007204;28;20853;-72
2022/11/12 12:46:48;;;;;;;10.15;6.35;;;;;;;;;;5009164;28;20041;-72
2022/11/12 12:49:16;;;;;;;7.30;5.07;;;;;;;;;;5007404;28;20101;-73
2022/11/12 12:51:41;;;;;;;10.95;6.90;;;;;;;;;;5009731;28;20614;-73
2022/11/12 12:54:25;;;;;;;10.93;6.53;;;;;;;;;;5009131;28;20113;-73
2022/11/12 12:56:50;;;;;;;9.27;6.15;;;;;;;;;;5006923;28;20779;-68
2022/11/12 12:59:17;;;;;;;10.30;6.53;;;;;;;;;;5009943;28;20030;-69
2022/11/12 13:01:43;;;;;;;10.48;6.20;;;;;;;;;;5005781;28;20030;-75
2022/11/12 13:04:09;;;;;;;11.38;6.68;;;;;;;;;;5010082;28;20044;-76
2022/11/12 13:06:38;;;;;;;10.00;6.43;;;;;;;;;;5009192;28;20026;-75
2022/11/12 13:09:05;;;;;;;9.70;5.25;;;;;;;;;;5012240;28;20022;-74
2022/11/12 13:14:29;;;;;;;10.15;5.75;;;;;;;;;;5011293;28;20038;-72
2022/11/12 13:16:55;;;;;;;8.88;5.32;;;;;;;;;;5007855;28;20131;-72
2022/11/12 13:19:33;;;;;;;11.10;5.82;;;;;;;;;;5008003;28;20022;-73
2022/11/12 13:22:16;;;;;;;9.13;5.07;;;;;;;;;;5007225;28;20030;-71
2022/11/12 13:25:00;;;;;;;7.72;5.10;;;;;;;;;;5010826;28;20081;-71
2022/11/12 13:27:38;;;;;;;9.00;4.78;;;;;;;;;;5008202;28;20025;-72
2022/11/12 13:30:06;;;;;;;10.07;5.63;;;;;;;;;;5011165;28;20026;-74
2022/11/12 13:32:36;;;;;;;8.68;5.45;;;;;;;;;;5007271;28;20032;-73
2022/11/12 13:35:11;;;;;;;7.65;5.53;;;;;;;;;;5010807;28;20104;-71
2022/11/12 13:37:50;;;;;;;11.07;5.50;;;;;;;;;;5018185;28;20034;-66
2022/11/12 13:40:22;;;;;;;7.55;4.60;;;;;;;;;;5010011;28;20059;-69
2022/11/12 13:42:47;;;;;;;6.80;4.55;;;;;;;;;;5002946;28;20036;-67
2022/11/12 13:45:12;;;;;;;8.88;5.03;;;;;;;;;;5011043;28;20018;-67
2022/11/12 13:47:38;;;;;;;9.63;5.38;;;;;;;;;;5005248;28;20041;-68
2022/11/12 13:50:06;;;;;;;9.52;4.72;;;;;;;;;;5009377;28;20091;-67
2022/11/12 13:52:32;;;;;;;7.53;4.82;;;;;;;;;;5010255;28;20026;-72
2022/11/12 13:55:02;;;;;;;6.00;4.13;;;;;;;;;;5010547;28;20500;-68
2022/11/12 13:57:29;;;;;;;9.65;5.80;;;;;;;;;;5002755;28;20026;-68
2022/11/12 14:00:09;;;;;;;10.02;5.32;;;;;;;;;;5010980;28;20109;-67
2022/11/12 14:02:36;;;;;;;8.18;4.88;;;;;;;;;;5009633;28;20100;-69
2022/11/12 14:05:01;;;;;;;7.60;5.38;;;;;;;;;;5011752;28;20033;-68
2022/11/12 14:07:39;;;;;;;9.23;5.68;;;;;;;;;;5009647;28;20049;-69
2022/11/12 14:10:07;;;;;;;7.35;4.70;;;;;;;;;;5009312;28;20032;-73
2022/11/12 14:12:38;;;;;;;7.82;4.85;;;;;;;;;;5008163;28;20028;-74
2022/11/12 14:15:13;;;;;;;10.35;5.28;;;;;;;;;;5004862;28;20022;-73
2022/11/12 14:17:40;;;;;;;10.57;5.15;;;;;;;;;;5000632;28;20061;-75
2022/11/12 14:20:19;;;;;;;7.50;4.80;;;;;;;;;;5007796;28;20026;-76
2022/11/12 14:22:45;;;;;;;9.00;4.70;;;;;;;;;;5005066;28;20384;-75
2022/11/12 14:25:21;;;;;;;14.27;7.38;;;;;;;;;;5001476;28;20109;-74
2022/11/12 14:27:47;;;;;;;8.55;5.10;;;;;;;;;;5008544;28;20042;-74
2022/11/12 14:30:17;;;;;;;8.07;4.18;;;;;;;;;;5009835;28;20068;-74
2022/11/12 14:32:44;;;;;;;10.73;4.93;;;;;;;;;;5009531;28;20540;-74
2022/11/12 14:35:21;;;;;;;8.50;5.10;;;;;;;;;;5009722;28;20198;-72
2022/11/12 14:37:51;;;;;;;9.43;4.50;;;;;;;;;;5010681;28;20033;-74
2022/11/12 14:40:17;;;;;;;8.75;5.00;;;;;;;;;;5009058;28;20033;-74
2022/11/12 14:42:42;;;;;;;9.65;4.70;;;;;;;;;;5003599;28;20030;-72
2022/11/12 14:45:17;;;;;;;13.85;4.80;;;;;;;;;;5009740;28;20488;-73
2022/11/12 14:47:44;;;;;;;8.68;5.32;;;;;;;;;;5004801;28;20033;-71
2022/11/12 14:50:26;;;;;;;10.52;4.93;;;;;;;;;;5009019;28;20029;-71
2022/11/12 14:52:56;;;;;;;9.43;4.95;;;;;;;;;;5006874;28;20133;-71
2022/11/12 14:55:23;;;;;;;11.23;4.97;;;;;;;;;;5007348;28;20079;-70
2022/11/12 14:57:49;;;;;;;11.38;4.32;;;;;;;;;;5007500;28;20033;-70
2022/11/12 15:00:19;;;;;;;13.73;5.55;;;;;;;;;;5006927;28;20029;-71
2022/11/12 15:02:45;;;;;;;9.60;5.47;;;;;;;;;;5006226;28;20540;-73
2022/11/12 15:05:12;;;;;;;9.30;4.28;;;;;;;;;;5006761;28;20499;-71
2022/11/12 15:07:49;;;;;;;8.98;4.55;;;;;;;;;;5007822;28;20041;-74
2022/11/12 15:10:33;;;;;;;8.05;4.50;;;;;;;;;;5006441;28;20354;-77
2022/11/12 15:13:01;;;;;;;8.63;4.78;;;;;;;;;;5009899;28;20076;-74
2022/11/12 15:15:26;;;;;;;9.93;5.47;;;;;;;;;;5009763;28;20032;-74
2022/11/12 15:17:56;;;;;;;9.30;4.95;;;;;;;;;;5002432;28;20628;-74
2022/11/12 15:20:21;;;;;;;9.15;4.75;;;;;;;;;;5010041;28;20033;-74